sensor_id;sensor_type;location;lat;lon;timestamp;temperature;humidity
46932;DHT22;32670;51.464;11.964;2023-10-19T00:02:05;22.80;56.40
46932;DHT22;32670;51.464;11.964;2023-10-19T00:04:31;22.80;56.40
46932;DHT22;32670;51.464;11.964;2023-10-19T00:07:00;22.80;56.30
46932;DHT22;32670;51.464;11.964;2023-10-19T00:09:25;22.80;56.20
46932;DHT22;32670;51.464;11.964;2023-10-19T00:11:56;22.80;56.20
46932;DHT22;32670;51.464;11.964;2023-10-19T00:14:23;22.80;56.20
46932;DHT22;32670;51.464;11.964;2023-10-19T00:16:51;22.80;56.20
46932;DHT22;32670;51.464;11.964;2023-10-19T00:19:19;22.80;56.30
46932;DHT22;32670;51.464;11.964;2023-10-19T00:21:46;22.80;56.30
46932;DHT22;32670;51.464;11.964;2023-10-19T00:24:20;22.90;56.40
46932;DHT22;32670;51.464;11.964;2023-10-19T00:26:48;22.80;56.40
46932;DHT22;32670;51.464;11.964;2023-10-19T00:29:17;22.80;56.50
46932;DHT22;32670;51.464;11.964;2023-10-19T00:32:05;22.80;56.50
46932;DHT22;32670;51.464;11.964;2023-10-19T00:34:32;22.90;56.60
46932;DHT22;32670;51.464;11.964;2023-10-19T00:36:58;22.90;56.90
46932;DHT22;32670;51.464;11.964;2023-10-19T00:39:34;22.90;56.70
46932;DHT22;32670;51.464;11.964;2023-10-19T00:42:08;22.90;56.80
46932;DHT22;32670;51.464;11.964;2023-10-19T00:44:34;22.90;57.40
46932;DHT22;32670;51.464;11.964;2023-10-19T00:47:07;23.00;57.00
46932;DHT22;32670;51.464;11.964;2023-10-19T00:49:38;22.90;56.90
46932;DHT22;32670;51.464;11.964;2023-10-19T00:52:06;23.00;57.00
46932;DHT22;32670;51.464;11.964;2023-10-19T00:54:45;23.00;57.00
46932;DHT22;32670;51.464;11.964;2023-10-19T00:57:15;23.00;57.10
46932;DHT22;32670;51.464;11.964;2023-10-19T00:59:46;22.90;57.50
46932;DHT22;32670;51.464;11.964;2023-10-19T01:02:19;23.00;56.90
46932;DHT22;32670;51.464;11.964;2023-10-19T01:04:52;23.00;56.90
46932;DHT22;32670;51.464;11.964;2023-10-19T01:07:24;23.00;56.90
46932;DHT22;32670;51.464;11.964;2023-10-19T01:10:04;23.00;56.90
46932;DHT22;32670;51.464;11.964;2023-10-19T01:12:48;23.00;56.90
46932;DHT22;32670;51.464;11.964;2023-10-19T01:15:17;23.00;57.00
46932;DHT22;32670;51.464;11.964;2023-10-19T01:17:48;23.00;57.00
46932;DHT22;32670;51.464;11.964;2023-10-19T01:20:20;23.00;57.30
46932;DHT22;32670;51.464;11.964;2023-10-19T01:22:55;23.00;57.30
46932;DHT22;32670;51.464;11.964;2023-10-19T01:28:15;23.00;57.40
46932;DHT22;32670;51.464;11.964;2023-10-19T01:30:44;23.10;57.40
46932;DHT22;32670;51.464;11.964;2023-10-19T01:33:10;23.00;57.30
46932;DHT22;32670;51.464;11.964;2023-10-19T01:35:41;23.10;57.30
46932;DHT22;32670;51.464;11.964;2023-10-19T01:38:25;23.10;57.30
46932;DHT22;32670;51.464;11.964;2023-10-19T01:40:50;23.10;57.40
46932;DHT22;32670;51.464;11.964;2023-10-19T01:43:17;23.00;57.40
46932;DHT22;32670;51.464;11.964;2023-10-19T01:46:01;23.10;57.50
46932;DHT22;32670;51.464;11.964;2023-10-19T01:48:30;23.10;57.60
46932;DHT22;32670;51.464;11.964;2023-10-19T01:51:04;23.10;57.70
46932;DHT22;32670;51.464;11.964;2023-10-19T01:53:34;23.10;57.60
46932;DHT22;32670;51.464;11.964;2023-10-19T01:56:05;23.10;57.80
46932;DHT22;32670;51.464;11.964;2023-10-19T01:58:32;23.10;57.80
46932;DHT22;32670;51.464;11.964;2023-10-19T02:01:02;23.10;57.90
46932;DHT22;32670;51.464;11.964;2023-10-19T02:03:33;23.10;57.90
46932;DHT22;32670;51.464;11.964;2023-10-19T02:05:59;23.10;57.90
46932;DHT22;32670;51.464;11.964;2023-10-19T02:08:27;23.10;57.90
46932;DHT22;32670;51.464;11.964;2023-10-19T02:10:53;23.10;57.80
46932;DHT22;32670;51.464;11.964;2023-10-19T02:13:20;23.10;57.90
46932;DHT22;32670;51.464;11.964;2023-10-19T02:15:46;23.10;57.90
46932;DHT22;32670;51.464;11.964;2023-10-19T02:18:11;23.10;57.80
46932;DHT22;32670;51.464;11.964;2023-10-19T02:20:37;23.10;57.80
46932;DHT22;32670;51.464;11.964;2023-10-19T02:23:09;23.10;57.80
46932;DHT22;32670;51.464;11.964;2023-10-19T02:25:34;23.10;57.90
46932;DHT22;32670;51.464;11.964;2023-10-19T02:28:04;23.10;58.00
46932;DHT22;32670;51.464;11.964;2023-10-19T02:30:32;23.10;58.10
46932;DHT22;32670;51.464;11.964;2023-10-19T02:32:59;23.10;58.00
46932;DHT22;32670;51.464;11.964;2023-10-19T02:35:26;23.10;57.90
46932;DHT22;32670;51.464;11.964;2023-10-19T02:37:53;23.10;57.80
46932;DHT22;32670;51.464;11.964;2023-10-19T02:40:18;23.10;58.00
46932;DHT22;32670;51.464;11.964;2023-10-19T02:42:49;23.10;58.30
46932;DHT22;32670;51.464;11.964;2023-10-19T02:45:19;23.10;58.10
46932;DHT22;32670;51.464;11.964;2023-10-19T02:47:45;23.10;58.20
46932;DHT22;32670;51.464;11.964;2023-10-19T02:50:12;23.10;58.20
46932;DHT22;32670;51.464;11.964;2023-10-19T02:52:42;23.10;58.30
46932;DHT22;32670;51.464;11.964;2023-10-19T02:55:09;23.10;58.20
46932;DHT22;32670;51.464;11.964;2023-10-19T02:57:36;23.10;58.40
46932;DHT22;32670;51.464;11.964;2023-10-19T03:00:05;23.10;58.30
46932;DHT22;32670;51.464;11.964;2023-10-19T03:02:39;23.10;58.40
46932;DHT22;32670;51.464;11.964;2023-10-19T03:05:05;23.10;58.20
46932;DHT22;32670;51.464;11.964;2023-10-19T03:07:41;23.10;58.40
46932;DHT22;32670;51.464;11.964;2023-10-19T03:10:09;23.10;58.30
46932;DHT22;32670;51.464;11.964;2023-10-19T03:12:49;23.10;58.20
46932;DHT22;32670;51.464;11.964;2023-10-19T03:15:15;23.10;58.10
46932;DHT22;32670;51.464;11.964;2023-10-19T03:17:40;23.10;58.30
46932;DHT22;32670;51.464;11.964;2023-10-19T03:20:07;23.10;58.50
46932;DHT22;32670;51.464;11.964;2023-10-19T03:22:32;23.10;58.40
46932;DHT22;32670;51.464;11.964;2023-10-19T03:24:59;23.20;58.30
46932;DHT22;32670;51.464;11.964;2023-10-19T03:27:44;23.20;58.40
46932;DHT22;32670;51.464;11.964;2023-10-19T03:30:10;23.20;58.40
46932;DHT22;32670;51.464;11.964;2023-10-19T03:32:41;23.20;58.40
46932;DHT22;32670;51.464;11.964;2023-10-19T03:35:06;23.20;58.50
46932;DHT22;32670;51.464;11.964;2023-10-19T03:37:32;23.20;58.50
46932;DHT22;32670;51.464;11.964;2023-10-19T03:40:00;23.20;58.50
46932;DHT22;32670;51.464;11.964;2023-10-19T03:42:31;23.20;58.60
46932;DHT22;32670;51.464;11.964;2023-10-19T03:44:58;23.20;58.60
46932;DHT22;32670;51.464;11.964;2023-10-19T03:47:25;23.20;58.70
46932;DHT22;32670;51.464;11.964;2023-10-19T03:49:52;23.20;58.60
46932;DHT22;32670;51.464;11.964;2023-10-19T03:52:18;23.20;58.60
46932;DHT22;32670;51.464;11.964;2023-10-19T03:54:44;23.20;58.60
46932;DHT22;32670;51.464;11.964;2023-10-19T03:57:12;23.30;58.70
46932;DHT22;32670;51.464;11.964;2023-10-19T03:59:41;23.30;58.90
46932;DHT22;32670;51.464;11.964;2023-10-19T04:02:07;23.30;58.90
46932;DHT22;32670;51.464;11.964;2023-10-19T04:04:39;23.30;58.80
46932;DHT22;32670;51.464;11.964;2023-10-19T04:07:11;23.30;58.80
46932;DHT22;32670;51.464;11.964;2023-10-19T04:09:45;23.30;59.00
46932;DHT22;32670;51.464;11.964;2023-10-19T04:12:23;23.30;59.00
46932;DHT22;32670;51.464;11.964;2023-10-19T04:14:49;23.30;59.00
46932;DHT22;32670;51.464;11.964;2023-10-19T04:17:14;23.30;59.00
46932;DHT22;32670;51.464;11.964;2023-10-19T04:19:41;23.30;59.10
46932;DHT22;32670;51.464;11.964;2023-10-19T04:22:06;23.30;59.20
46932;DHT22;32670;51.464;11.964;2023-10-19T04:24:33;23.30;59.80
46932;DHT22;32670;51.464;11.964;2023-10-19T04:26:59;23.30;59.30
46932;DHT22;32670;51.464;11.964;2023-10-19T04:29:25;23.30;59.20
46932;DHT22;32670;51.464;11.964;2023-10-19T04:31:53;23.30;59.20
46932;DHT22;32670;51.464;11.964;2023-10-19T04:34:22;23.30;59.50
46932;DHT22;32670;51.464;11.964;2023-10-19T04:36:48;23.30;59.70
46932;DHT22;32670;51.464;11.964;2023-10-19T04:39:14;23.30;59.70
46932;DHT22;32670;51.464;11.964;2023-10-19T04:41:40;23.30;59.80
46932;DHT22;32670;51.464;11.964;2023-10-19T04:44:06;23.30;59.90
46932;DHT22;32670;51.464;11.964;2023-10-19T04:46:34;23.30;59.80
46932;DHT22;32670;51.464;11.964;2023-10-19T04:48:59;23.30;59.80
46932;DHT22;32670;51.464;11.964;2023-10-19T04:51:25;23.30;59.70
46932;DHT22;32670;51.464;11.964;2023-10-19T04:53:51;23.30;59.60
46932;DHT22;32670;51.464;11.964;2023-10-19T04:56:16;23.30;59.50
46932;DHT22;32670;51.464;11.964;2023-10-19T04:58:42;23.30;59.60
46932;DHT22;32670;51.464;11.964;2023-10-19T05:01:07;23.30;59.60
46932;DHT22;32670;51.464;11.964;2023-10-19T05:03:33;23.30;59.50
46932;DHT22;32670;51.464;11.964;2023-10-19T05:05:59;23.30;59.60
46932;DHT22;32670;51.464;11.964;2023-10-19T05:08:26;23.30;59.70
46932;DHT22;32670;51.464;11.964;2023-10-19T05:10:53;23.40;59.90
46932;DHT22;32670;51.464;11.964;2023-10-19T05:13:23;23.30;60.00
46932;DHT22;32670;51.464;11.964;2023-10-19T05:15:48;23.30;59.90
46932;DHT22;32670;51.464;11.964;2023-10-19T05:18:14;23.40;60.00
46932;DHT22;32670;51.464;11.964;2023-10-19T05:20:39;23.40;60.10
46932;DHT22;32670;51.464;11.964;2023-10-19T05:23:10;23.40;60.20
46932;DHT22;32670;51.464;11.964;2023-10-19T05:25:36;23.40;60.20
46932;DHT22;32670;51.464;11.964;2023-10-19T05:28:03;23.40;60.30
46932;DHT22;32670;51.464;11.964;2023-10-19T05:30:29;23.40;60.30
46932;DHT22;32670;51.464;11.964;2023-10-19T05:32:55;23.40;60.40
46932;DHT22;32670;51.464;11.964;2023-10-19T05:35:21;23.40;60.30
46932;DHT22;32670;51.464;11.964;2023-10-19T05:37:52;23.40;60.20
46932;DHT22;32670;51.464;11.964;2023-10-19T05:40:17;23.40;60.30
46932;DHT22;32670;51.464;11.964;2023-10-19T05:42:44;23.40;60.30
46932;DHT22;32670;51.464;11.964;2023-10-19T05:45:11;23.40;60.40
46932;DHT22;32670;51.464;11.964;2023-10-19T05:47:42;23.40;60.30
46932;DHT22;32670;51.464;11.964;2023-10-19T05:50:09;23.40;60.40
46932;DHT22;32670;51.464;11.964;2023-10-19T05:52:35;23.40;60.70
46932;DHT22;32670;51.464;11.964;2023-10-19T05:55:00;23.50;61.00
46932;DHT22;32670;51.464;11.964;2023-10-19T05:57:27;23.40;60.60
46932;DHT22;32670;51.464;11.964;2023-10-19T05:59:52;23.50;60.40
46932;DHT22;32670;51.464;11.964;2023-10-19T06:02:17;23.40;60.10
46932;DHT22;32670;51.464;11.964;2023-10-19T06:04:43;23.30;54.30
46932;DHT22;32670;51.464;11.964;2023-10-19T06:07:08;22.90;50.90
46932;DHT22;32670;51.464;11.964;2023-10-19T06:09:35;22.60;50.20
46932;DHT22;32670;51.464;11.964;2023-10-19T06:12:01;22.40;50.00
46932;DHT22;32670;51.464;11.964;2023-10-19T06:14:27;22.10;49.70
46932;DHT22;32670;51.464;11.964;2023-10-19T06:16:55;21.90;49.20
46932;DHT22;32670;51.464;11.964;2023-10-19T06:19:21;21.80;48.80
46932;DHT22;32670;51.464;11.964;2023-10-19T06:21:47;21.70;48.60
46932;DHT22;32670;51.464;11.964;2023-10-19T06:24:15;21.50;48.40
46932;DHT22;32670;51.464;11.964;2023-10-19T06:26:42;21.50;48.50
46932;DHT22;32670;51.464;11.964;2023-10-19T06:29:07;21.40;48.60
46932;DHT22;32670;51.464;11.964;2023-10-19T06:31:33;21.30;48.70
46932;DHT22;32670;51.464;11.964;2023-10-19T06:33:58;21.20;48.90
46932;DHT22;32670;51.464;11.964;2023-10-19T06:36:27;21.10;48.90
46932;DHT22;32670;51.464;11.964;2023-10-19T06:38:54;21.00;49.00
46932;DHT22;32670;51.464;11.964;2023-10-19T06:41:20;21.00;49.30
46932;DHT22;32670;51.464;11.964;2023-10-19T06:43:46;20.90;49.20
46932;DHT22;32670;51.464;11.964;2023-10-19T06:46:12;20.90;49.20
46932;DHT22;32670;51.464;11.964;2023-10-19T06:48:38;20.80;49.30
46932;DHT22;32670;51.464;11.964;2023-10-19T06:51:04;20.70;49.30
46932;DHT22;32670;51.464;11.964;2023-10-19T06:53:30;20.70;49.60
46932;DHT22;32670;51.464;11.964;2023-10-19T06:55:56;20.70;49.80
46932;DHT22;32670;51.464;11.964;2023-10-19T06:58:22;20.70;50.10
46932;DHT22;32670;51.464;11.964;2023-10-19T07:00:52;20.70;49.60
46932;DHT22;32670;51.464;11.964;2023-10-19T07:03:30;20.70;49.40
46932;DHT22;32670;51.464;11.964;2023-10-19T07:05:56;20.60;49.30
46932;DHT22;32670;51.464;11.964;2023-10-19T07:08:22;20.50;49.50
46932;DHT22;32670;51.464;11.964;2023-10-19T07:10:47;20.50;49.60
46932;DHT22;32670;51.464;11.964;2023-10-19T07:13:15;20.40;49.50
46932;DHT22;32670;51.464;11.964;2023-10-19T07:15:41;20.40;49.50
46932;DHT22;32670;51.464;11.964;2023-10-19T07:18:07;20.40;50.70
46932;DHT22;32670;51.464;11.964;2023-10-19T07:20:32;20.60;51.00
46932;DHT22;32670;51.464;11.964;2023-10-19T07:23:00;20.80;50.90
46932;DHT22;32670;51.464;11.964;2023-10-19T07:25:30;20.90;51.00
46932;DHT22;32670;51.464;11.964;2023-10-19T07:27:56;21.10;51.00
46932;DHT22;32670;51.464;11.964;2023-10-19T07:30:25;21.20;51.00
46932;DHT22;32670;51.464;11.964;2023-10-19T07:32:53;21.30;51.00
46932;DHT22;32670;51.464;11.964;2023-10-19T07:35:21;21.30;50.90
46932;DHT22;32670;51.464;11.964;2023-10-19T07:37:47;21.30;51.00
46932;DHT22;32670;51.464;11.964;2023-10-19T07:40:14;21.40;51.00
46932;DHT22;32670;51.464;11.964;2023-10-19T07:42:40;21.40;51.00
46932;DHT22;32670;51.464;11.964;2023-10-19T07:45:08;21.50;51.60
46932;DHT22;32670;51.464;11.964;2023-10-19T07:47:37;21.50;51.00
46932;DHT22;32670;51.464;11.964;2023-10-19T07:50:06;21.50;51.20
46932;DHT22;32670;51.464;11.964;2023-10-19T07:52:34;21.50;51.30
46932;DHT22;32670;51.464;11.964;2023-10-19T07:55:01;21.50;51.30
46932;DHT22;32670;51.464;11.964;2023-10-19T07:57:31;21.60;51.20
46932;DHT22;32670;51.464;11.964;2023-10-19T07:59:57;21.60;51.40
46932;DHT22;32670;51.464;11.964;2023-10-19T08:02:24;21.60;51.70
46932;DHT22;32670;51.464;11.964;2023-10-19T08:04:50;21.60;51.50
46932;DHT22;32670;51.464;11.964;2023-10-19T08:07:16;21.60;51.80
46932;DHT22;32670;51.464;11.964;2023-10-19T08:09:43;21.70;51.60
46932;DHT22;32670;51.464;11.964;2023-10-19T08:12:09;21.70;51.70
46932;DHT22;32670;51.464;11.964;2023-10-19T08:14:34;21.70;51.60
46932;DHT22;32670;51.464;11.964;2023-10-19T08:17:00;21.70;51.70
46932;DHT22;32670;51.464;11.964;2023-10-19T08:19:27;21.70;51.80
46932;DHT22;32670;51.464;11.964;2023-10-19T08:21:53;21.70;51.70
46932;DHT22;32670;51.464;11.964;2023-10-19T08:24:18;21.70;52.30
46932;DHT22;32670;51.464;11.964;2023-10-19T08:26:46;21.80;52.30
46932;DHT22;32670;51.464;11.964;2023-10-19T08:29:12;21.80;52.40
46932;DHT22;32670;51.464;11.964;2023-10-19T08:31:40;21.80;52.00
46932;DHT22;32670;51.464;11.964;2023-10-19T08:34:05;21.80;52.00
46932;DHT22;32670;51.464;11.964;2023-10-19T08:36:31;21.80;51.80
46932;DHT22;32670;51.464;11.964;2023-10-19T08:38:56;21.80;51.80
46932;DHT22;32670;51.464;11.964;2023-10-19T08:41:22;21.80;52.10
46932;DHT22;32670;51.464;11.964;2023-10-19T08:43:48;21.80;51.90
46932;DHT22;32670;51.464;11.964;2023-10-19T08:46:15;21.80;52.00
46932;DHT22;32670;51.464;11.964;2023-10-19T08:48:41;21.80;52.00
46932;DHT22;32670;51.464;11.964;2023-10-19T08:51:10;21.80;51.90
46932;DHT22;32670;51.464;11.964;2023-10-19T08:53:38;21.80;51.90
46932;DHT22;32670;51.464;11.964;2023-10-19T08:56:08;21.80;52.00
46932;DHT22;32670;51.464;11.964;2023-10-19T08:58:34;21.80;52.20
46932;DHT22;32670;51.464;11.964;2023-10-19T09:00:59;21.80;52.70
46932;DHT22;32670;51.464;11.964;2023-10-19T09:03:32;21.80;52.90
46932;DHT22;32670;51.464;11.964;2023-10-19T09:06:01;21.80;52.90
46932;DHT22;32670;51.464;11.964;2023-10-19T09:08:27;21.80;52.50
46932;DHT22;32670;51.464;11.964;2023-10-19T09:11:07;21.90;52.60
46932;DHT22;32670;51.464;11.964;2023-10-19T09:13:50;21.90;52.50
46932;DHT22;32670;51.464;11.964;2023-10-19T09:16:20;21.80;52.50
46932;DHT22;32670;51.464;11.964;2023-10-19T09:18:47;21.80;52.50
46932;DHT22;32670;51.464;11.964;2023-10-19T09:21:21;21.80;52.50
46932;DHT22;32670;51.464;11.964;2023-10-19T09:23:54;21.80;52.50
46932;DHT22;32670;51.464;11.964;2023-10-19T09:26:21;21.80;52.50
46932;DHT22;32670;51.464;11.964;2023-10-19T09:28:51;21.80;52.50
46932;DHT22;32670;51.464;11.964;2023-10-19T09:31:18;21.80;52.50
46932;DHT22;32670;51.464;11.964;2023-10-19T09:33:45;21.80;52.40
46932;DHT22;32670;51.464;11.964;2023-10-19T09:36:12;21.80;52.60
46932;DHT22;32670;51.464;11.964;2023-10-19T09:38:46;21.80;52.80
46932;DHT22;32670;51.464;11.964;2023-10-19T09:41:22;21.80;52.50
46932;DHT22;32670;51.464;11.964;2023-10-19T09:43:49;21.80;52.70
46932;DHT22;32670;51.464;11.964;2023-10-19T09:46:26;21.80;52.70
46932;DHT22;32670;51.464;11.964;2023-10-19T09:48:51;21.80;52.80
46932;DHT22;32670;51.464;11.964;2023-10-19T09:51:18;21.80;52.70
46932;DHT22;32670;51.464;11.964;2023-10-19T09:53:48;21.90;52.90
46932;DHT22;32670;51.464;11.964;2023-10-19T09:56:21;21.80;52.80
46932;DHT22;32670;51.464;11.964;2023-10-19T09:58:51;21.80;52.90
46932;DHT22;32670;51.464;11.964;2023-10-19T10:01:18;21.80;52.80
46932;DHT22;32670;51.464;11.964;2023-10-19T10:03:51;21.80;52.90
46932;DHT22;32670;51.464;11.964;2023-10-19T10:09:20;21.80;52.80
46932;DHT22;32670;51.464;11.964;2023-10-19T10:11:52;21.80;52.80
46932;DHT22;32670;51.464;11.964;2023-10-19T10:14:23;21.80;52.80
46932;DHT22;32670;51.464;11.964;2023-10-19T10:17:03;21.80;53.00
46932;DHT22;32670;51.464;11.964;2023-10-19T10:19:30;21.80;53.00
46932;DHT22;32670;51.464;11.964;2023-10-19T10:22:10;21.80;52.70
46932;DHT22;32670;51.464;11.964;2023-10-19T10:24:42;21.80;53.00
46932;DHT22;32670;51.464;11.964;2023-10-19T10:27:08;21.80;53.10
46932;DHT22;32670;51.464;11.964;2023-10-19T10:29:35;21.80;53.10
46932;DHT22;32670;51.464;11.964;2023-10-19T10:32:01;21.80;53.10
46932;DHT22;32670;51.464;11.964;2023-10-19T10:37:00;21.90;53.00
46932;DHT22;32670;51.464;11.964;2023-10-19T10:39:29;21.80;53.20
46932;DHT22;32670;51.464;11.964;2023-10-19T10:42:01;21.80;53.20
46932;DHT22;32670;51.464;11.964;2023-10-19T10:47:07;21.80;53.10
46932;DHT22;32670;51.464;11.964;2023-10-19T10:49:45;21.80;53.30
46932;DHT22;32670;51.464;11.964;2023-10-19T10:52:11;21.90;53.30
46932;DHT22;32670;51.464;11.964;2023-10-19T10:54:37;21.80;53.30
46932;DHT22;32670;51.464;11.964;2023-10-19T10:57:03;21.90;53.50
46932;DHT22;32670;51.464;11.964;2023-10-19T10:59:29;21.90;53.40
46932;DHT22;32670;51.464;11.964;2023-10-19T11:01:55;21.90;53.20
46932;DHT22;32670;51.464;11.964;2023-10-19T11:04:20;21.90;53.20
46932;DHT22;32670;51.464;11.964;2023-10-19T11:06:53;21.90;53.20
46932;DHT22;32670;51.464;11.964;2023-10-19T11:09:22;21.90;53.30
46932;DHT22;32670;51.464;11.964;2023-10-19T11:11:48;21.90;53.50
46932;DHT22;32670;51.464;11.964;2023-10-19T11:14:20;21.90;53.60
46932;DHT22;32670;51.464;11.964;2023-10-19T11:16:49;21.90;53.30
46932;DHT22;32670;51.464;11.964;2023-10-19T11:19:14;21.90;53.60
46932;DHT22;32670;51.464;11.964;2023-10-19T11:21:52;21.90;53.50
46932;DHT22;32670;51.464;11.964;2023-10-19T11:24:25;21.90;53.20
46932;DHT22;32670;51.464;11.964;2023-10-19T11:26:51;21.90;53.60
46932;DHT22;32670;51.464;11.964;2023-10-19T11:29:16;21.90;53.40
46932;DHT22;32670;51.464;11.964;2023-10-19T11:31:56;21.90;53.30
46932;DHT22;32670;51.464;11.964;2023-10-19T11:34:22;21.90;53.50
46932;DHT22;32670;51.464;11.964;2023-10-19T11:36:52;21.90;53.60
46932;DHT22;32670;51.464;11.964;2023-10-19T11:39:18;21.90;53.60
46932;DHT22;32670;51.464;11.964;2023-10-19T11:41:44;21.90;53.30
46932;DHT22;32670;51.464;11.964;2023-10-19T11:44:09;21.90;53.60
46932;DHT22;32670;51.464;11.964;2023-10-19T11:46:35;21.90;53.90
46932;DHT22;32670;51.464;11.964;2023-10-19T11:49:00;21.90;53.60
46932;DHT22;32670;51.464;11.964;2023-10-19T11:51:28;21.90;53.90
46932;DHT22;32670;51.464;11.964;2023-10-19T11:53:56;21.90;54.00
46932;DHT22;32670;51.464;11.964;2023-10-19T11:56:22;21.90;53.90
46932;DHT22;32670;51.464;11.964;2023-10-19T11:58:49;21.90;54.00
46932;DHT22;32670;51.464;11.964;2023-10-19T12:01:14;21.90;54.00
46932;DHT22;32670;51.464;11.964;2023-10-19T12:03:42;21.90;54.20
46932;DHT22;32670;51.464;11.964;2023-10-19T12:06:11;21.90;53.90
46932;DHT22;32670;51.464;11.964;2023-10-19T12:08:38;21.90;53.90
46932;DHT22;32670;51.464;11.964;2023-10-19T12:11:05;21.90;53.90
46932;DHT22;32670;51.464;11.964;2023-10-19T12:13:41;21.90;54.00
46932;DHT22;32670;51.464;11.964;2023-10-19T12:16:09;21.90;54.70
46932;DHT22;32670;51.464;11.964;2023-10-19T12:18:36;22.00;54.40
46932;DHT22;32670;51.464;11.964;2023-10-19T12:21:03;22.00;54.40
46932;DHT22;32670;51.464;11.964;2023-10-19T12:23:33;22.00;54.40
46932;DHT22;32670;51.464;11.964;2023-10-19T12:25:58;22.00;54.60
46932;DHT22;32670;51.464;11.964;2023-10-19T12:28:27;22.00;54.70
46932;DHT22;32670;51.464;11.964;2023-10-19T12:30:53;22.00;54.40
46932;DHT22;32670;51.464;11.964;2023-10-19T12:33:18;22.00;54.50
46932;DHT22;32670;51.464;11.964;2023-10-19T12:35:44;22.00;54.40
46932;DHT22;32670;51.464;11.964;2023-10-19T12:38:13;22.00;54.30
46932;DHT22;32670;51.464;11.964;2023-10-19T12:40:47;22.00;54.30
46932;DHT22;32670;51.464;11.964;2023-10-19T12:43:14;22.00;54.50
46932;DHT22;32670;51.464;11.964;2023-10-19T12:45:40;22.00;54.60
46932;DHT22;32670;51.464;11.964;2023-10-19T12:48:06;21.90;54.10
46932;DHT22;32670;51.464;11.964;2023-10-19T12:50:34;22.00;54.20
46932;DHT22;32670;51.464;11.964;2023-10-19T12:52:59;22.00;54.50
46932;DHT22;32670;51.464;11.964;2023-10-19T12:55:26;22.00;54.30
46932;DHT22;32670;51.464;11.964;2023-10-19T12:57:59;22.00;54.60
46932;DHT22;32670;51.464;11.964;2023-10-19T13:00:32;22.00;54.60
46932;DHT22;32670;51.464;11.964;2023-10-19T13:03:05;22.00;54.50
46932;DHT22;32670;51.464;11.964;2023-10-19T13:05:34;22.00;54.70
46932;DHT22;32670;51.464;11.964;2023-10-19T13:08:01;22.00;54.40
46932;DHT22;32670;51.464;11.964;2023-10-19T13:10:30;21.90;54.30
46932;DHT22;32670;51.464;11.964;2023-10-19T13:13:00;21.90;54.30
46932;DHT22;32670;51.464;11.964;2023-10-19T13:15:32;22.00;54.70
46932;DHT22;32670;51.464;11.964;2023-10-19T13:17:58;22.00;54.60
46932;DHT22;32670;51.464;11.964;2023-10-19T13:20:27;22.00;54.70
46932;DHT22;32670;51.464;11.964;2023-10-19T13:22:54;22.00;54.80
46932;DHT22;32670;51.464;11.964;2023-10-19T13:25:21;22.00;54.90
46932;DHT22;32670;51.464;11.964;2023-10-19T13:28:07;22.00;54.50
46932;DHT22;32670;51.464;11.964;2023-10-19T13:30:46;22.00;54.70
46932;DHT22;32670;51.464;11.964;2023-10-19T13:33:13;22.00;54.60
46932;DHT22;32670;51.464;11.964;2023-10-19T13:35:39;22.00;54.60
46932;DHT22;32670;51.464;11.964;2023-10-19T13:38:06;22.00;54.70
46932;DHT22;32670;51.464;11.964;2023-10-19T13:40:33;22.00;54.60
46932;DHT22;32670;51.464;11.964;2023-10-19T13:42:59;22.00;54.60
46932;DHT22;32670;51.464;11.964;2023-10-19T13:45:25;22.00;54.70
46932;DHT22;32670;51.464;11.964;2023-10-19T13:47:51;22.00;54.90
46932;DHT22;32670;51.464;11.964;2023-10-19T13:50:24;22.00;54.80
46932;DHT22;32670;51.464;11.964;2023-10-19T13:52:51;22.00;55.00
46932;DHT22;32670;51.464;11.964;2023-10-19T13:55:17;22.00;54.90
46932;DHT22;32670;51.464;11.964;2023-10-19T13:57:45;22.00;54.90
46932;DHT22;32670;51.464;11.964;2023-10-19T14:00:12;22.00;54.90
46932;DHT22;32670;51.464;11.964;2023-10-19T14:02:45;22.00;55.10
46932;DHT22;32670;51.464;11.964;2023-10-19T14:05:10;22.00;55.00
46932;DHT22;32670;51.464;11.964;2023-10-19T14:07:36;22.00;55.20
46932;DHT22;32670;51.464;11.964;2023-10-19T14:10:08;22.00;55.20
46932;DHT22;32670;51.464;11.964;2023-10-19T14:12:37;22.00;55.10
46932;DHT22;32670;51.464;11.964;2023-10-19T14:15:03;22.00;54.90
46932;DHT22;32670;51.464;11.964;2023-10-19T14:17:29;22.00;55.40
46932;DHT22;32670;51.464;11.964;2023-10-19T14:19:55;22.00;55.10
46932;DHT22;32670;51.464;11.964;2023-10-19T14:22:20;22.00;55.10
46932;DHT22;32670;51.464;11.964;2023-10-19T14:24:46;22.00;55.10
46932;DHT22;32670;51.464;11.964;2023-10-19T14:27:12;22.00;55.10
46932;DHT22;32670;51.464;11.964;2023-10-19T14:29:39;22.00;55.20
46932;DHT22;32670;51.464;11.964;2023-10-19T14:32:04;22.00;55.20
46932;DHT22;32670;51.464;11.964;2023-10-19T14:34:30;22.00;55.20
46932;DHT22;32670;51.464;11.964;2023-10-19T14:36:55;22.00;55.30
46932;DHT22;32670;51.464;11.964;2023-10-19T14:39:21;22.00;55.20
46932;DHT22;32670;51.464;11.964;2023-10-19T14:41:47;22.10;55.60
46932;DHT22;32670;51.464;11.964;2023-10-19T14:44:12;22.00;55.30
46932;DHT22;32670;51.464;11.964;2023-10-19T14:46:38;22.10;55.10
46932;DHT22;32670;51.464;11.964;2023-10-19T14:49:03;22.00;55.40
46932;DHT22;32670;51.464;11.964;2023-10-19T14:51:30;22.00;55.40
46932;DHT22;32670;51.464;11.964;2023-10-19T14:53:55;22.00;55.30
46932;DHT22;32670;51.464;11.964;2023-10-19T14:56:21;22.00;55.40
46932;DHT22;32670;51.464;11.964;2023-10-19T14:58:46;22.00;55.50
46932;DHT22;32670;51.464;11.964;2023-10-19T15:01:12;22.00;55.50
46932;DHT22;32670;51.464;11.964;2023-10-19T15:03:42;22.00;55.40
46932;DHT22;32670;51.464;11.964;2023-10-19T15:06:08;22.00;55.30
46932;DHT22;32670;51.464;11.964;2023-10-19T15:08:33;22.00;55.30
46932;DHT22;32670;51.464;11.964;2023-10-19T15:10:59;22.00;55.40
46932;DHT22;32670;51.464;11.964;2023-10-19T15:13:25;22.00;55.50
46932;DHT22;32670;51.464;11.964;2023-10-19T15:15:51;22.00;55.50
46932;DHT22;32670;51.464;11.964;2023-10-19T15:18:16;22.00;55.50
46932;DHT22;32670;51.464;11.964;2023-10-19T15:20:43;22.00;55.60
46932;DHT22;32670;51.464;11.964;2023-10-19T15:23:09;22.00;55.60
46932;DHT22;32670;51.464;11.964;2023-10-19T15:25:36;22.00;55.60
46932;DHT22;32670;51.464;11.964;2023-10-19T15:28:02;22.00;55.60
46932;DHT22;32670;51.464;11.964;2023-10-19T15:30:27;22.00;55.50
46932;DHT22;32670;51.464;11.964;2023-10-19T15:32:54;22.00;55.60